DLH471 EDDF-CYYZ
Flight info
| Callsign | DLH471 |
|---|---|
| Flight time | N/A |
| Altitude | 38000 |
| Route | OBOKA3D/07C OBOKA Z28 DIBIR DCT BUDIP DCT GISEB DCT MIMVA DCT OTBED L60 PENIL M144 BAGSO DCT DOGAL/M081F390 NATA ALLRY/N0464F400 DCT QUBIS DCT LETAK IMEBA9 |
| Aircraft | A333/H-SDE3GHIJ2J3J5M1RVWXY/LB2D1 |
Departure
| Time | 2026-05-01 12:16 |
|---|---|
| Airport | Frankfurt Main Airport (EDDF) |
Arrival
| Time | N/A |
|---|---|
| Airport | Toronto Pearson International Airport (CYYZ) |
| Time | Latitude | Longitude | Altitude | Speed | Heading |
|---|---|---|---|---|---|
| 2026-05-01 11:57 | 50.04595 | 8.57054 | 361 ft | 0 kts | 59° |
| 2026-05-01 12:07 | 50.04584 | 8.57025 | 367 ft | 4 kts | 58° |
| 2026-05-01 12:07 | 50.04571 | 8.56989 | 367 ft | 4 kts | 70° |
| 2026-05-01 12:07 | 50.04568 | 8.56953 | 365 ft | 3 kts | 103° |
| 2026-05-01 12:08 | 50.04577 | 8.56918 | 368 ft | 4 kts | 143° |
| 2026-05-01 12:08 | 50.04600 | 8.56909 | 366 ft | 4 kts | 192° |
| 2026-05-01 12:08 | 50.04590 | 8.56905 | 367 ft | 4 kts | 192° |
| 2026-05-01 12:08 | 50.04564 | 8.56895 | 368 ft | 4 kts | 194° |
| 2026-05-01 12:09 | 50.04552 | 8.56890 | 368 ft | 2 kts | 194° |
| 2026-05-01 12:10 | 50.04523 | 8.56880 | 365 ft | 8 kts | 193° |
| 2026-05-01 12:10 | 50.04441 | 8.56855 | 365 ft | 16 kts | 192° |
| 2026-05-01 12:11 | 50.04232 | 8.56714 | 368 ft | 18 kts | 248° |
| 2026-05-01 12:11 | 50.04183 | 8.56520 | 365 ft | 20 kts | 248° |
| 2026-05-01 12:11 | 50.04135 | 8.56308 | 358 ft | 21 kts | 250° |
| 2026-05-01 12:12 | 50.04083 | 8.56089 | 363 ft | 22 kts | 247° |
| 2026-05-01 12:12 | 50.04027 | 8.55859 | 358 ft | 23 kts | 249° |
| 2026-05-01 12:12 | 50.03970 | 8.55622 | 359 ft | 24 kts | 249° |
| 2026-05-01 12:12 | 50.03912 | 8.55381 | 358 ft | 24 kts | 250° |
| 2026-05-01 12:13 | 50.03856 | 8.55141 | 360 ft | 24 kts | 249° |
| 2026-05-01 12:13 | 50.03797 | 8.54894 | 359 ft | 25 kts | 249° |
| 2026-05-01 12:13 | 50.03735 | 8.54638 | 358 ft | 26 kts | 249° |
| 2026-05-01 12:13 | 50.03670 | 8.54367 | 353 ft | 27 kts | 250° |
| 2026-05-01 12:14 | 50.03604 | 8.54092 | 354 ft | 27 kts | 249° |
| 2026-05-01 12:14 | 50.03537 | 8.53812 | 351 ft | 28 kts | 249° |
| 2026-05-01 12:14 | 50.03467 | 8.53526 | 353 ft | 29 kts | 249° |
| 2026-05-01 12:14 | 50.03364 | 8.53345 | 335 ft | 17 kts | 163° |
| 2026-05-01 12:15 | 50.03293 | 8.53471 | 352 ft | 11 kts | 126° |
| 2026-05-01 12:15 | 50.03297 | 8.53609 | 348 ft | 21 kts | 72° |
| 2026-05-01 12:15 | 50.03404 | 8.54069 | 353 ft | 72 kts | 69° |
| 2026-05-01 12:15 | 50.03646 | 8.55073 | 354 ft | 125 kts | 70° |
| 2026-05-01 12:16 | 50.04004 | 8.56568 | 397 ft | 167 kts | 71° |
| 2026-05-01 12:16 | 50.04416 | 8.58327 | 952 ft | 176 kts | 72° |
| 2026-05-01 12:16 | 50.04821 | 8.60101 | 1903 ft | 170 kts | 73° |
| 2026-05-01 12:16 | 50.05221 | 8.61870 | 2544 ft | 180 kts | 75° |
| 2026-05-01 12:17 | 50.05661 | 8.63838 | 2863 ft | 205 kts | 74° |
| 2026-05-01 12:17 | 50.06155 | 8.66052 | 3296 ft | 225 kts | 74° |
| 2026-05-01 12:17 | 50.06671 | 8.68376 | 3996 ft | 230 kts | 72° |
| 2026-05-01 12:17 | 50.07390 | 8.70698 | 4450 ft | 250 kts | 59° |
| 2026-05-01 12:18 | 50.08682 | 8.72627 | 4974 ft | 268 kts | 32° |
| 2026-05-01 12:18 | 50.10533 | 8.73321 | 5476 ft | 287 kts | 358° |
| 2026-05-01 12:18 | 50.12428 | 8.72305 | 6169 ft | 293 kts | 323° |
| 2026-05-01 12:18 | 50.13760 | 8.69959 | 7009 ft | 289 kts | 301° |
| 2026-05-01 12:19 | 50.14812 | 8.67273 | 7747 ft | 292 kts | 300° |
| 2026-05-01 12:19 | 50.15888 | 8.64565 | 8428 ft | 296 kts | 301° |
| 2026-05-01 12:19 | 50.17024 | 8.61860 | 9165 ft | 299 kts | 303° |
| 2026-05-01 12:19 | 50.18206 | 8.59159 | 9881 ft | 303 kts | 304° |
| 2026-05-01 12:20 | 50.19416 | 8.56454 | 10559 ft | 307 kts | 304° |
| 2026-05-01 12:20 | 50.20683 | 8.53658 | 10856 ft | 325 kts | 305° |
| 2026-05-01 12:20 | 50.22031 | 8.50701 | 11115 ft | 344 kts | 305° |
| 2026-05-01 12:20 | 50.23456 | 8.47580 | 11340 ft | 362 kts | 305° |
| 2026-05-01 12:21 | 50.24950 | 8.44315 | 11647 ft | 376 kts | 305° |
| 2026-05-01 12:21 | 50.26491 | 8.40953 | 12192 ft | 383 kts | 306° |
| 2026-05-01 12:21 | 50.28048 | 8.37547 | 12819 ft | 387 kts | 306° |
| 2026-05-01 12:21 | 50.29616 | 8.34110 | 13465 ft | 390 kts | 306° |
| 2026-05-01 12:22 | 50.31199 | 8.30636 | 14099 ft | 394 kts | 306° |
| 2026-05-01 12:22 | 50.32803 | 8.27111 | 14582 ft | 400 kts | 306° |
| 2026-05-01 12:22 | 50.34423 | 8.23544 | 15130 ft | 404 kts | 306° |
| 2026-05-01 12:22 | 50.36056 | 8.19945 | 15734 ft | 406 kts | 306° |
| 2026-05-01 12:23 | 50.37692 | 8.16336 | 16374 ft | 407 kts | 306° |
| 2026-05-01 12:23 | 50.39333 | 8.12714 | 16931 ft | 411 kts | 306° |
| 2026-05-01 12:23 | 50.40990 | 8.09050 | 17488 ft | 414 kts | 306° |